Aérodrome :
LOGIN :

S'inscrire | Disclaimer

   EN    FR    IT 

 










Légende :    VFR   VFR Marginal   IFR   IFR Intensif   IFR Très Intensif
Visi : 
Plafond : 
>= 8 km
>= 3000ft
5 à 8 km
1000 à 3000 ft
1500m à 5 km
500 à 1000 ft
800 à 1500m
200 à 500 ft
< 800m
< 200 ft
Symboles :   Orages  Brouillard  Fortes neiges  Fortes précipitations  Vent > 20 kt
SIGMETs :   Divers  Orages  Givrage  Turbulence  Onde Orograph.  Cendres Volcan.







- Altitude de l'aérodrome : 614 ft
- Code IATA : CRL


EBCI - Charleroi

DERNIER METAR :
  • 240820Z 03008KT 360V060 9999 FEW014 SCT016 14/08 Q1024 NOSIG

METARs EXPIRÉS :
  • 240750Z 01007KT 340V040 9999 FEW014 SCT016 14/09 Q1024 NOSIG
  • 240720Z 01007KT 330V050 9999 FEW014 SCT016 13/08 Q1024 NOSIG
  • 240650Z 35006KT 310V020 9999 FEW012 SCT015 13/09 Q1024 TEMPO BKN015
  • 240620Z 35006KT 310V020 9999 FEW012 SCT015 13/10 Q1024 TEMPO BKN015
  • 240550Z 34004KT 300V020 9999 FEW012 11/09 Q1024 TEMPO BKN013

TAF TAF EBCI
Valide du 24 à 06h jusqu'au 25 à 12h UTC


240520Z 2406/2512 34005KT 9999 SCT018
PROB30
TEMPO 2406/2408 BKN004
PROB40
TEMPO 2501/2509 3500 BR BKN004
Pas de NOTAMs connus pour ce terrain.



MET'MAP, la Météo Aéronautique d'un coup d'oeil ! - Copyright ORBIFLY Décembre 2007 - Disclaimer

ORBIFLY MET'MAP TEAM :

Programmation & Développement : Alexandra Zaïnal
Conception & Développement : Baudouin d'Aumeries
Co-Programmation & Développement : Marc-Olivier Méhu
Soutien technique & logistique : Manuel Goepfert

Contact : metmap@orbifly.com




SOURCES & CREDITS :

   NOAA